sensor_id;sensor_type;location;lat;lon;timestamp;P1;durP1;ratioP1;P2;durP2;ratioP2
1957;SDS011;979;51.076;13.748;2023-06-10T00:01:39;26.70;;;25.10;;
1957;SDS011;979;51.076;13.748;2023-06-10T00:04:08;27.07;;;25.43;;
1957;SDS011;979;51.076;13.748;2023-06-10T00:07:18;26.70;;;25.10;;
1957;SDS011;979;51.076;13.748;2023-06-10T00:09:46;26.90;;;25.40;;
1957;SDS011;979;51.076;13.748;2023-06-10T00:12:25;25.80;;;24.50;;
1957;SDS011;979;51.076;13.748;2023-06-10T00:15:03;26.23;;;24.83;;
1957;SDS011;979;51.076;13.748;2023-06-10T00:17:34;26.47;;;24.97;;
1957;SDS011;979;51.076;13.748;2023-06-10T00:20:35;25.80;;;24.47;;
1957;SDS011;979;51.076;13.748;2023-06-10T00:23:05;26.40;;;24.90;;
1957;SDS011;979;51.076;13.748;2023-06-10T00:25:35;25.47;;;24.10;;
1957;SDS011;979;51.076;13.748;2023-06-10T00:28:08;24.73;;;23.43;;
1957;SDS011;979;51.076;13.748;2023-06-10T00:30:47;25.10;;;23.70;;
1957;SDS011;979;51.076;13.748;2023-06-10T00:33:26;23.67;;;22.37;;
1957;SDS011;979;51.076;13.748;2023-06-10T00:35:55;24.03;;;22.93;;
1957;SDS011;979;51.076;13.748;2023-06-10T00:38:39;22.90;;;21.80;;
1957;SDS011;979;51.076;13.748;2023-06-10T00:41:08;23.73;;;22.53;;
1957;SDS011;979;51.076;13.748;2023-06-10T00:43:36;23.70;;;22.30;;
1957;SDS011;979;51.076;13.748;2023-06-10T00:46:18;23.50;;;22.20;;
1957;SDS011;979;51.076;13.748;2023-06-10T00:48:48;24.00;;;22.70;;
1957;SDS011;979;51.076;13.748;2023-06-10T00:51:17;24.20;;;22.90;;
1957;SDS011;979;51.076;13.748;2023-06-10T00:53:49;23.93;;;22.53;;
1957;SDS011;979;51.076;13.748;2023-06-10T00:56:19;25.00;;;23.70;;
1957;SDS011;979;51.076;13.748;2023-06-10T00:59:13;24.03;;;22.73;;
1957;SDS011;979;51.076;13.748;2023-06-10T01:01:48;23.93;;;22.73;;
1957;SDS011;979;51.076;13.748;2023-06-10T01:04:24;25.53;;;24.03;;
1957;SDS011;979;51.076;13.748;2023-06-10T01:06:54;24.17;;;22.87;;
1957;SDS011;979;51.076;13.748;2023-06-10T01:09:32;23.80;;;22.40;;
1957;SDS011;979;51.076;13.748;2023-06-10T01:12:08;24.10;;;22.80;;
1957;SDS011;979;51.076;13.748;2023-06-10T01:14:43;23.77;;;22.53;;
1957;SDS011;979;51.076;13.748;2023-06-10T01:17:20;24.50;;;23.20;;
1957;SDS011;979;51.076;13.748;2023-06-10T01:20:00;23.97;;;22.57;;
1957;SDS011;979;51.076;13.748;2023-06-10T01:22:39;25.63;;;24.23;;
1957;SDS011;979;51.076;13.748;2023-06-10T01:25:09;24.33;;;22.93;;
1957;SDS011;979;51.076;13.748;2023-06-10T01:27:54;24.90;;;23.50;;
1957;SDS011;979;51.076;13.748;2023-06-10T01:30:42;24.77;;;23.47;;
1957;SDS011;979;51.076;13.748;2023-06-10T01:33:17;26.17;;;24.77;;
1957;SDS011;979;51.076;13.748;2023-06-10T01:35:49;25.40;;;23.80;;
1957;SDS011;979;51.076;13.748;2023-06-10T01:38:39;25.50;;;24.00;;
1957;SDS011;979;51.076;13.748;2023-06-10T01:41:20;25.20;;;23.90;;
1957;SDS011;979;51.076;13.748;2023-06-10T01:43:49;24.13;;;22.83;;
1957;SDS011;979;51.076;13.748;2023-06-10T01:46:17;25.97;;;24.57;;
1957;SDS011;979;51.076;13.748;2023-06-10T01:48:47;24.70;;;23.20;;
1957;SDS011;979;51.076;13.748;2023-06-10T01:51:21;24.97;;;23.37;;
1957;SDS011;979;51.076;13.748;2023-06-10T01:53:53;24.17;;;22.87;;
1957;SDS011;979;51.076;13.748;2023-06-10T01:56:25;26.50;;;25.00;;
1957;SDS011;979;51.076;13.748;2023-06-10T01:59:02;25.93;;;24.53;;
1957;SDS011;979;51.076;13.748;2023-06-10T02:01:30;24.90;;;23.50;;
1957;SDS011;979;51.076;13.748;2023-06-10T02:03:59;25.47;;;24.07;;
1957;SDS011;979;51.076;13.748;2023-06-10T02:06:29;25.07;;;23.67;;
1957;SDS011;979;51.076;13.748;2023-06-10T02:09:14;26.13;;;24.63;;
1957;SDS011;979;51.076;13.748;2023-06-10T02:11:42;27.90;;;26.23;;
1957;SDS011;979;51.076;13.748;2023-06-10T02:14:10;26.17;;;24.67;;
1957;SDS011;979;51.076;13.748;2023-06-10T02:16:39;26.40;;;24.83;;
1957;SDS011;979;51.076;13.748;2023-06-10T02:19:27;26.17;;;24.60;;
1957;SDS011;979;51.076;13.748;2023-06-10T02:22:06;27.43;;;25.47;;
1957;SDS011;979;51.076;13.748;2023-06-10T02:24:50;26.93;;;25.33;;
1957;SDS011;979;51.076;13.748;2023-06-10T02:27:23;27.43;;;25.77;;
1957;SDS011;979;51.076;13.748;2023-06-10T02:29:51;26.47;;;24.87;;
1957;SDS011;979;51.076;13.748;2023-06-10T02:32:20;27.00;;;25.50;;
1957;SDS011;979;51.076;13.748;2023-06-10T02:42:41;27.30;;;25.70;;
1957;SDS011;979;51.076;13.748;2023-06-10T02:45:10;26.93;;;25.37;;
1957;SDS011;979;51.076;13.748;2023-06-10T02:47:41;28.50;;;26.80;;
1957;SDS011;979;51.076;13.748;2023-06-10T02:50:11;28.67;;;26.70;;
1957;SDS011;979;51.076;13.748;2023-06-10T02:52:49;29.87;;;27.23;;
1957;SDS011;979;51.076;13.748;2023-06-10T02:55:18;29.13;;;27.20;;
1957;SDS011;979;51.076;13.748;2023-06-10T02:57:53;27.70;;;26.00;;
1957;SDS011;979;51.076;13.748;2023-06-10T03:00:23;28.17;;;26.47;;
1957;SDS011;979;51.076;13.748;2023-06-10T03:02:51;28.57;;;26.57;;
1957;SDS011;979;51.076;13.748;2023-06-10T03:05:34;27.97;;;26.30;;
1957;SDS011;979;51.076;13.748;2023-06-10T03:08:04;27.57;;;25.70;;
1957;SDS011;979;51.076;13.748;2023-06-10T03:10:36;27.33;;;25.70;;
1957;SDS011;979;51.076;13.748;2023-06-10T03:13:07;29.30;;;27.30;;
1957;SDS011;979;51.076;13.748;2023-06-10T03:15:37;28.47;;;26.67;;
1957;SDS011;979;51.076;13.748;2023-06-10T03:18:25;29.40;;;26.90;;
1957;SDS011;979;51.076;13.748;2023-06-10T03:20:55;27.10;;;25.50;;
1957;SDS011;979;51.076;13.748;2023-06-10T03:26:10;28.73;;;26.93;;
1957;SDS011;979;51.076;13.748;2023-06-10T03:28:44;28.23;;;26.50;;
1957;SDS011;979;51.076;13.748;2023-06-10T03:31:17;27.43;;;25.73;;
1957;SDS011;979;51.076;13.748;2023-06-10T03:33:52;28.30;;;26.43;;
1957;SDS011;979;51.076;13.748;2023-06-10T03:36:20;28.40;;;26.67;;
1957;SDS011;979;51.076;13.748;2023-06-10T03:39:10;27.97;;;26.17;;
1957;SDS011;979;51.076;13.748;2023-06-10T03:41:46;26.80;;;25.07;;
1957;SDS011;979;51.076;13.748;2023-06-10T03:47:16;28.20;;;26.20;;
1957;SDS011;979;51.076;13.748;2023-06-10T03:49:47;28.33;;;26.50;;
1957;SDS011;979;51.076;13.748;2023-06-10T03:54:45;27.00;;;25.40;;
1957;SDS011;979;51.076;13.748;2023-06-10T03:57:13;24.00;;;22.70;;
1957;SDS011;979;51.076;13.748;2023-06-10T03:59:57;27.73;;;25.67;;
1957;SDS011;979;51.076;13.748;2023-06-10T04:02:26;29.07;;;27.07;;
1957;SDS011;979;51.076;13.748;2023-06-10T04:04:55;28.93;;;27.13;;
1957;SDS011;979;51.076;13.748;2023-06-10T04:07:25;28.63;;;26.63;;
1957;SDS011;979;51.076;13.748;2023-06-10T04:10:17;29.47;;;27.20;;
1957;SDS011;979;51.076;13.748;2023-06-10T04:12:48;30.00;;;27.70;;
1957;SDS011;979;51.076;13.748;2023-06-10T04:15:19;28.40;;;26.70;;
1957;SDS011;979;51.076;13.748;2023-06-10T04:17:48;28.80;;;26.73;;
1957;SDS011;979;51.076;13.748;2023-06-10T04:20:21;28.07;;;26.27;;
1957;SDS011;979;51.076;13.748;2023-06-10T04:23:03;28.20;;;26.40;;
1957;SDS011;979;51.076;13.748;2023-06-10T04:25:32;28.70;;;26.90;;
1957;SDS011;979;51.076;13.748;2023-06-10T04:28:01;27.70;;;25.83;;
1957;SDS011;979;51.076;13.748;2023-06-10T04:30:33;26.83;;;25.03;;
1957;SDS011;979;51.076;13.748;2023-06-10T04:33:08;27.50;;;25.83;;
1957;SDS011;979;51.076;13.748;2023-06-10T04:35:46;27.30;;;25.67;;
1957;SDS011;979;51.076;13.748;2023-06-10T04:38:18;27.50;;;25.80;;
1957;SDS011;979;51.076;13.748;2023-06-10T04:40:58;27.90;;;25.90;;
1957;SDS011;979;51.076;13.748;2023-06-10T04:43:30;26.90;;;25.20;;
1957;SDS011;979;51.076;13.748;2023-06-10T04:46:02;26.73;;;25.23;;
1957;SDS011;979;51.076;13.748;2023-06-10T04:48:47;27.90;;;26.10;;
1957;SDS011;979;51.076;13.748;2023-06-10T04:51:16;28.30;;;26.50;;
1957;SDS011;979;51.076;13.748;2023-06-10T04:54:01;26.47;;;24.97;;
1957;SDS011;979;51.076;13.748;2023-06-10T04:56:50;27.50;;;25.80;;
1957;SDS011;979;51.076;13.748;2023-06-10T04:59:25;27.83;;;26.03;;
1957;SDS011;979;51.076;13.748;2023-06-10T05:01:58;25.80;;;24.20;;
1957;SDS011;979;51.076;13.748;2023-06-10T05:04:30;26.13;;;24.60;;
1957;SDS011;979;51.076;13.748;2023-06-10T05:12:33;24.20;;;22.80;;
1957;SDS011;979;51.076;13.748;2023-06-10T05:15:32;25.30;;;23.90;;
1957;SDS011;979;51.076;13.748;2023-06-10T05:18:27;24.67;;;23.10;;
1957;SDS011;979;51.076;13.748;2023-06-10T05:21:00;25.27;;;23.87;;
1957;SDS011;979;51.076;13.748;2023-06-10T05:23:37;25.60;;;24.20;;
1957;SDS011;979;51.076;13.748;2023-06-10T05:29:30;25.40;;;23.13;;
1957;SDS011;979;51.076;13.748;2023-06-10T05:32:16;22.60;;;21.30;;
1957;SDS011;979;51.076;13.748;2023-06-10T05:45:23;23.53;;;22.27;;
1957;SDS011;979;51.076;13.748;2023-06-10T05:47:54;24.37;;;22.70;;
1957;SDS011;979;51.076;13.748;2023-06-10T05:50:26;25.20;;;23.73;;
1957;SDS011;979;51.076;13.748;2023-06-10T05:53:21;23.83;;;22.57;;
1957;SDS011;979;51.076;13.748;2023-06-10T05:55:51;23.70;;;22.33;;
1957;SDS011;979;51.076;13.748;2023-06-10T05:58:24;23.83;;;22.50;;
1957;SDS011;979;51.076;13.748;2023-06-10T06:02:02;22.90;;;21.70;;
1957;SDS011;979;51.076;13.748;2023-06-10T06:05:12;23.27;;;22.07;;
1957;SDS011;979;51.076;13.748;2023-06-10T06:07:53;24.73;;;23.27;;
1957;SDS011;979;51.076;13.748;2023-06-10T06:10:24;23.90;;;22.70;;
1957;SDS011;979;51.076;13.748;2023-06-10T06:13:17;24.50;;;23.30;;
1957;SDS011;979;51.076;13.748;2023-06-10T06:15:57;23.83;;;22.53;;
1957;SDS011;979;51.076;13.748;2023-06-10T06:19:40;23.60;;;22.40;;
1957;SDS011;979;51.076;13.748;2023-06-10T06:22:30;25.13;;;23.80;;
1957;SDS011;979;51.076;13.748;2023-06-10T06:24:59;24.10;;;22.90;;
1957;SDS011;979;51.076;13.748;2023-06-10T06:27:34;23.87;;;22.57;;
1957;SDS011;979;51.076;13.748;2023-06-10T06:30:18;25.47;;;24.10;;
1957;SDS011;979;51.076;13.748;2023-06-10T06:48:30;24.70;;;23.17;;
1957;SDS011;979;51.076;13.748;2023-06-10T06:51:02;25.10;;;23.80;;
1957;SDS011;979;51.076;13.748;2023-06-10T06:53:34;24.83;;;23.43;;
1957;SDS011;979;51.076;13.748;2023-06-10T06:56:11;24.60;;;23.10;;
1957;SDS011;979;51.076;13.748;2023-06-10T06:58:39;23.13;;;22.03;;
1957;SDS011;979;51.076;13.748;2023-06-10T07:01:07;24.77;;;23.17;;
1957;SDS011;979;51.076;13.748;2023-06-10T07:03:37;24.23;;;23.13;;
1957;SDS011;979;51.076;13.748;2023-06-10T07:06:06;23.33;;;22.23;;
1957;SDS011;979;51.076;13.748;2023-06-10T07:08:35;22.97;;;21.87;;
1957;SDS011;979;51.076;13.748;2023-06-10T07:11:04;22.70;;;21.70;;
1957;SDS011;979;51.076;13.748;2023-06-10T07:13:38;23.00;;;21.90;;
1957;SDS011;979;51.076;13.748;2023-06-10T07:16:07;22.47;;;21.43;;
1957;SDS011;979;51.076;13.748;2023-06-10T07:18:39;22.80;;;21.70;;
1957;SDS011;979;51.076;13.748;2023-06-10T07:21:08;23.67;;;22.40;;
1957;SDS011;979;51.076;13.748;2023-06-10T07:23:37;23.63;;;22.43;;
1957;SDS011;979;51.076;13.748;2023-06-10T07:30:32;23.00;;;21.90;;
1957;SDS011;979;51.076;13.748;2023-06-10T07:43:58;23.83;;;22.57;;
1957;SDS011;979;51.076;13.748;2023-06-10T07:46:27;23.63;;;22.53;;
1957;SDS011;979;51.076;13.748;2023-06-10T07:49:12;23.07;;;22.07;;
1957;SDS011;979;51.076;13.748;2023-06-10T07:51:40;22.83;;;21.73;;
1957;SDS011;979;51.076;13.748;2023-06-10T07:54:08;23.33;;;22.13;;
1957;SDS011;979;51.076;13.748;2023-06-10T07:56:55;23.07;;;22.03;;
1957;SDS011;979;51.076;13.748;2023-06-10T07:59:27;23.83;;;22.63;;
1957;SDS011;979;51.076;13.748;2023-06-10T08:01:58;24.07;;;22.90;;
1957;SDS011;979;51.076;13.748;2023-06-10T08:04:28;24.10;;;22.90;;
1957;SDS011;979;51.076;13.748;2023-06-10T08:06:57;25.27;;;23.97;;
1957;SDS011;979;51.076;13.748;2023-06-10T08:09:32;23.83;;;22.53;;
1957;SDS011;979;51.076;13.748;2023-06-10T08:12:15;23.40;;;22.20;;
1957;SDS011;979;51.076;13.748;2023-06-10T08:14:45;22.73;;;21.73;;
1957;SDS011;979;51.076;13.748;2023-06-10T08:17:13;22.83;;;21.77;;
1957;SDS011;979;51.076;13.748;2023-06-10T08:19:42;22.87;;;21.80;;
1957;SDS011;979;51.076;13.748;2023-06-10T08:22:10;22.90;;;21.80;;
1957;SDS011;979;51.076;13.748;2023-06-10T08:24:42;23.07;;;21.97;;
1957;SDS011;979;51.076;13.748;2023-06-10T08:27:13;23.53;;;22.40;;
1957;SDS011;979;51.076;13.748;2023-06-10T08:29:48;22.53;;;21.40;;
1957;SDS011;979;51.076;13.748;2023-06-10T08:32:17;23.40;;;22.20;;
1957;SDS011;979;51.076;13.748;2023-06-10T08:34:48;22.90;;;21.80;;
1957;SDS011;979;51.076;13.748;2023-06-10T08:37:55;22.20;;;21.10;;
1957;SDS011;979;51.076;13.748;2023-06-10T08:40:25;22.57;;;21.57;;
1957;SDS011;979;51.076;13.748;2023-06-10T08:46:01;23.37;;;22.17;;
1957;SDS011;979;51.076;13.748;2023-06-10T08:48:43;22.77;;;21.57;;
1957;SDS011;979;51.076;13.748;2023-06-10T08:51:21;22.30;;;21.10;;
1957;SDS011;979;51.076;13.748;2023-06-10T08:54:15;21.67;;;20.67;;
1957;SDS011;979;51.076;13.748;2023-06-10T08:56:50;22.70;;;21.70;;
1957;SDS011;979;51.076;13.748;2023-06-10T09:03:16;23.30;;;21.97;;
1957;SDS011;979;51.076;13.748;2023-06-10T09:05:48;21.73;;;20.73;;
1957;SDS011;979;51.076;13.748;2023-06-10T09:11:45;23.13;;;21.83;;
1957;SDS011;979;51.076;13.748;2023-06-10T09:14:54;23.00;;;21.90;;
1957;SDS011;979;51.076;13.748;2023-06-10T09:17:29;22.80;;;21.80;;
1957;SDS011;979;51.076;13.748;2023-06-10T09:20:00;20.73;;;19.83;;
1957;SDS011;979;51.076;13.748;2023-06-10T09:22:29;21.87;;;20.73;;
1957;SDS011;979;51.076;13.748;2023-06-10T09:25:04;21.50;;;20.50;;
1957;SDS011;979;51.076;13.748;2023-06-10T09:27:49;21.90;;;20.97;;
1957;SDS011;979;51.076;13.748;2023-06-10T09:30:34;21.80;;;20.70;;
1957;SDS011;979;51.076;13.748;2023-06-10T09:33:13;21.90;;;21.00;;
1957;SDS011;979;51.076;13.748;2023-06-10T09:35:56;21.47;;;20.40;;
1957;SDS011;979;51.076;13.748;2023-06-10T09:38:36;22.17;;;21.17;;
1957;SDS011;979;51.076;13.748;2023-06-10T09:44:49;20.43;;;19.43;;
1957;SDS011;979;51.076;13.748;2023-06-10T09:50:36;20.07;;;19.20;;
1957;SDS011;979;51.076;13.748;2023-06-10T09:56:10;20.63;;;19.63;;
1957;SDS011;979;51.076;13.748;2023-06-10T09:58:52;21.10;;;20.30;;
1957;SDS011;979;51.076;13.748;2023-06-10T10:01:33;21.70;;;20.70;;
1957;SDS011;979;51.076;13.748;2023-06-10T10:04:13;22.53;;;21.40;;
1957;SDS011;979;51.076;13.748;2023-06-10T10:07:44;19.63;;;18.93;;
1957;SDS011;979;51.076;13.748;2023-06-10T10:11:16;21.30;;;20.20;;
1957;SDS011;979;51.076;13.748;2023-06-10T10:18:10;20.50;;;19.60;;
1957;SDS011;979;51.076;13.748;2023-06-10T10:21:40;20.90;;;19.90;;
1957;SDS011;979;51.076;13.748;2023-06-10T10:24:36;20.00;;;19.10;;
1957;SDS011;979;51.076;13.748;2023-06-10T10:27:26;22.13;;;20.90;;
1957;SDS011;979;51.076;13.748;2023-06-10T10:29:56;20.70;;;19.80;;
1957;SDS011;979;51.076;13.748;2023-06-10T10:32:56;20.27;;;19.37;;
1957;SDS011;979;51.076;13.748;2023-06-10T10:35:30;22.20;;;20.93;;
1957;SDS011;979;51.076;13.748;2023-06-10T10:38:06;21.70;;;20.70;;
1957;SDS011;979;51.076;13.748;2023-06-10T10:40:50;21.57;;;20.60;;
1957;SDS011;979;51.076;13.748;2023-06-10T10:43:26;22.13;;;21.13;;
1957;SDS011;979;51.076;13.748;2023-06-10T10:46:18;21.50;;;20.60;;
1957;SDS011;979;51.076;13.748;2023-06-10T10:49:02;22.10;;;21.20;;
1957;SDS011;979;51.076;13.748;2023-06-10T10:51:56;21.70;;;20.80;;
1957;SDS011;979;51.076;13.748;2023-06-10T11:03:14;22.60;;;21.60;;
1957;SDS011;979;51.076;13.748;2023-06-10T11:06:24;21.90;;;20.90;;
1957;SDS011;979;51.076;13.748;2023-06-10T11:26:56;23.77;;;22.77;;
1957;SDS011;979;51.076;13.748;2023-06-10T11:32:29;23.97;;;22.70;;
1957;SDS011;979;51.076;13.748;2023-06-10T12:12:19;23.47;;;22.37;;
1957;SDS011;979;51.076;13.748;2023-06-10T12:14:51;22.73;;;21.50;;
1957;SDS011;979;51.076;13.748;2023-06-10T12:17:23;21.73;;;20.57;;
1957;SDS011;979;51.076;13.748;2023-06-10T12:20:04;20.57;;;19.77;;
1957;SDS011;979;51.076;13.748;2023-06-10T12:22:44;20.07;;;19.03;;
